This is the latest recevied weather packets stored in our database for station/object HB9UQS-13. If no packets are shown the sender has not sent any weather packets the latest 10 day(s).
| Time | Temp. | Humidity | Pressure | Rain* | Wind** | Luminosity | Snow |
|---|---|---|---|---|---|---|---|
| 1778193450 | 7.78° C | 85% | 929.2 hPa | 0 mm | - | 0 W/m² | - |
| 1778191651 | 7.22° C | 88% | 929.4 hPa | 0 mm | - | 0 W/m² | - |
| 1778189851 | 7.78° C | 85% | 929.4 hPa | 0 mm | - | 0 W/m² | - |
| 1778188050 | 8.89° C | 83% | 929.5 hPa | 0 mm | - | 0 W/m² | - |
| 1778186250 | 8.89° C | 82% | 929.2 hPa | 0 mm | - | 0 W/m² | - |
| 1778184450 | 9.44° C | 81% | 929.1 hPa | 0 mm | - | 0 W/m² | - |
| 1778182650 | 10° C | 78% | 928.9 hPa | 0 mm | - | 0 W/m² | - |
| 1778180851 | 11.11° C | 74% | 928.8 hPa | 0 mm | - | 0 W/m² | - |
| 1778179050 | 11.67° C | 74% | 928.6 hPa | 0 mm | - | 0 W/m² | - |
| 1778177251 | 12.78° C | 70% | 928.5 hPa | 0 mm | - | 0 W/m² | - |
| 1778175450 | 12.78° C | 65% | 928.4 hPa | 0 mm | - | 0 W/m² | - |
| 1778173650 | 13.33° C | 62% | 928.1 hPa | 0 mm | - | 0 W/m² | - |
| 1778171850 | 13.89° C | 62% | 928.3 hPa | 0 mm | - | 0 W/m² | - |
| 1778170050 | 14.44° C | 56% | 928.1 hPa | 0 mm | - | 0 W/m² | - |
| 1778168250 | 15.56° C | 57% | 928.1 hPa | 0 mm | - | 0 W/m² | - |
| 1778166451 | 15.56° C | 55% | 928.1 hPa | 0 mm | - | 0 W/m² | - |
| 1778164650 | 13.89° C | 61% | 928.1 hPa | 0 mm | - | 0 W/m² | - |
| 1778162850 | 15.56° C | 55% | 928.2 hPa | 0 mm | - | 0 W/m² | - |
| 1778161050 | 14.44° C | 57% | 928.4 hPa | 0 mm | - | 0 W/m² | - |
| 1778159251 | 13.89° C | 61% | 928.4 hPa | 0 mm | - | 0 W/m² | - |
| 1778157450 | 13.89° C | 64% | 928.4 hPa | 0 mm | - | 0 W/m² | - |
| 1778155650 | 12.78° C | 68% | 928.5 hPa | 0 mm | - | 0 W/m² | - |
| 1778153850 | 13.33° C | 63% | 928.6 hPa | 0 mm | - | 0 W/m² | - |
| 1778152050 | 13.89° C | 66% | 928.7 hPa | 0 mm | - | 0 W/m² | - |
| 1778150250 | 12.78° C | 65% | 928.7 hPa | 0 mm | - | 0 W/m² | - |
* Rain latest hour (hover to see other rain measurements)
** Current wind speed in m/s (hover to see current wind gust speed)